sensor_id;sensor_type;location;lat;lon;timestamp;temperature;humidity
10566;DHT22;5331;48.148;16.326;2023-08-06T00:00:24;16.50;1.00
10566;DHT22;5331;48.148;16.326;2023-08-06T00:02:53;16.40;1.00
10566;DHT22;5331;48.148;16.326;2023-08-06T00:05:20;16.40;1.00
10566;DHT22;5331;48.148;16.326;2023-08-06T00:07:47;16.50;1.00
10566;DHT22;5331;48.148;16.326;2023-08-06T00:10:14;16.50;1.00
10566;DHT22;5331;48.148;16.326;2023-08-06T00:12:41;16.40;1.00
10566;DHT22;5331;48.148;16.326;2023-08-06T00:15:09;16.50;1.00
10566;DHT22;5331;48.148;16.326;2023-08-06T00:17:36;16.40;1.00
10566;DHT22;5331;48.148;16.326;2023-08-06T00:20:06;16.40;1.00
10566;DHT22;5331;48.148;16.326;2023-08-06T00:22:33;16.40;1.00
10566;DHT22;5331;48.148;16.326;2023-08-06T00:25:00;16.30;1.00
10566;DHT22;5331;48.148;16.326;2023-08-06T00:27:27;16.40;1.00
10566;DHT22;5331;48.148;16.326;2023-08-06T00:29:54;16.30;1.00
10566;DHT22;5331;48.148;16.326;2023-08-06T00:32:21;16.30;1.00
10566;DHT22;5331;48.148;16.326;2023-08-06T00:34:48;16.30;1.00
10566;DHT22;5331;48.148;16.326;2023-08-06T00:37:17;16.30;1.00
10566;DHT22;5331;48.148;16.326;2023-08-06T00:39:44;16.30;1.00
10566;DHT22;5331;48.148;16.326;2023-08-06T00:42:11;16.20;1.00
10566;DHT22;5331;48.148;16.326;2023-08-06T00:44:39;16.20;1.00
10566;DHT22;5331;48.148;16.326;2023-08-06T00:47:07;16.20;1.00
10566;DHT22;5331;48.148;16.326;2023-08-06T00:49:35;16.30;1.00
10566;DHT22;5331;48.148;16.326;2023-08-06T00:52:04;16.30;1.00
10566;DHT22;5331;48.148;16.326;2023-08-06T00:54:33;16.20;1.00
10566;DHT22;5331;48.148;16.326;2023-08-06T00:57:01;16.20;1.00
10566;DHT22;5331;48.148;16.326;2023-08-06T00:59:29;16.20;1.00
10566;DHT22;5331;48.148;16.326;2023-08-06T01:01:56;16.20;1.00
10566;DHT22;5331;48.148;16.326;2023-08-06T01:04:23;16.20;1.00
10566;DHT22;5331;48.148;16.326;2023-08-06T01:07:00;16.20;1.00
10566;DHT22;5331;48.148;16.326;2023-08-06T01:09:38;16.10;1.00
10566;DHT22;5331;48.148;16.326;2023-08-06T01:12:13;16.20;1.00
10566;DHT22;5331;48.148;16.326;2023-08-06T01:14:59;16.20;1.00
10566;DHT22;5331;48.148;16.326;2023-08-06T01:17:29;16.10;1.00
10566;DHT22;5331;48.148;16.326;2023-08-06T01:19:57;16.10;1.00
10566;DHT22;5331;48.148;16.326;2023-08-06T01:22:25;16.10;1.00
10566;DHT22;5331;48.148;16.326;2023-08-06T01:24:52;16.20;1.00
10566;DHT22;5331;48.148;16.326;2023-08-06T01:27:25;16.10;1.00
10566;DHT22;5331;48.148;16.326;2023-08-06T01:29:59;16.20;1.00
10566;DHT22;5331;48.148;16.326;2023-08-06T01:32:33;16.20;1.00
10566;DHT22;5331;48.148;16.326;2023-08-06T01:35:02;16.20;1.00
10566;DHT22;5331;48.148;16.326;2023-08-06T01:37:31;16.20;1.00
10566;DHT22;5331;48.148;16.326;2023-08-06T01:39:59;16.20;1.00
10566;DHT22;5331;48.148;16.326;2023-08-06T01:42:26;16.10;1.00
10566;DHT22;5331;48.148;16.326;2023-08-06T01:44:52;16.20;1.00
10566;DHT22;5331;48.148;16.326;2023-08-06T01:47:19;16.10;1.00
10566;DHT22;5331;48.148;16.326;2023-08-06T01:49:46;16.20;1.00
10566;DHT22;5331;48.148;16.326;2023-08-06T01:52:13;16.20;1.00
10566;DHT22;5331;48.148;16.326;2023-08-06T01:54:41;16.20;1.00
10566;DHT22;5331;48.148;16.326;2023-08-06T01:57:08;16.20;1.00
10566;DHT22;5331;48.148;16.326;2023-08-06T01:59:35;16.10;1.00
10566;DHT22;5331;48.148;16.326;2023-08-06T02:02:02;16.10;1.00
10566;DHT22;5331;48.148;16.326;2023-08-06T02:04:29;16.10;1.00
10566;DHT22;5331;48.148;16.326;2023-08-06T02:06:56;16.10;1.00
10566;DHT22;5331;48.148;16.326;2023-08-06T02:09:23;16.10;1.00
10566;DHT22;5331;48.148;16.326;2023-08-06T02:11:51;16.20;1.00
10566;DHT22;5331;48.148;16.326;2023-08-06T02:14:18;16.10;1.00
10566;DHT22;5331;48.148;16.326;2023-08-06T02:16:45;16.20;1.00
10566;DHT22;5331;48.148;16.326;2023-08-06T02:19:12;16.10;1.00
10566;DHT22;5331;48.148;16.326;2023-08-06T02:21:39;16.20;1.00
10566;DHT22;5331;48.148;16.326;2023-08-06T02:24:05;16.20;1.00
10566;DHT22;5331;48.148;16.326;2023-08-06T02:26:32;16.10;1.00
10566;DHT22;5331;48.148;16.326;2023-08-06T02:29:00;16.10;1.00
10566;DHT22;5331;48.148;16.326;2023-08-06T02:31:27;16.00;1.00
10566;DHT22;5331;48.148;16.326;2023-08-06T02:33:54;16.10;1.00
10566;DHT22;5331;48.148;16.326;2023-08-06T02:36:21;16.00;1.00
10566;DHT22;5331;48.148;16.326;2023-08-06T02:38:48;16.00;1.00
10566;DHT22;5331;48.148;16.326;2023-08-06T02:41:15;16.10;1.00
10566;DHT22;5331;48.148;16.326;2023-08-06T02:43:42;16.10;1.00
10566;DHT22;5331;48.148;16.326;2023-08-06T02:46:10;16.10;1.00
10566;DHT22;5331;48.148;16.326;2023-08-06T02:48:37;16.00;1.00
10566;DHT22;5331;48.148;16.326;2023-08-06T02:51:04;16.10;1.00
10566;DHT22;5331;48.148;16.326;2023-08-06T02:53:31;16.10;1.00
10566;DHT22;5331;48.148;16.326;2023-08-06T02:55:58;16.10;1.00
10566;DHT22;5331;48.148;16.326;2023-08-06T02:58:25;16.10;1.00
10566;DHT22;5331;48.148;16.326;2023-08-06T03:01:02;16.20;1.00
10566;DHT22;5331;48.148;16.326;2023-08-06T03:03:31;16.20;1.00
10566;DHT22;5331;48.148;16.326;2023-08-06T03:05:58;16.20;1.00
10566;DHT22;5331;48.148;16.326;2023-08-06T03:08:25;16.20;1.00
10566;DHT22;5331;48.148;16.326;2023-08-06T03:10:52;16.20;1.00
10566;DHT22;5331;48.148;16.326;2023-08-06T03:13:19;16.30;1.00
10566;DHT22;5331;48.148;16.326;2023-08-06T03:15:52;16.20;1.00
10566;DHT22;5331;48.148;16.326;2023-08-06T03:18:19;16.20;1.00
10566;DHT22;5331;48.148;16.326;2023-08-06T03:20:48;16.30;1.00
10566;DHT22;5331;48.148;16.326;2023-08-06T03:23:15;16.30;1.00
10566;DHT22;5331;48.148;16.326;2023-08-06T03:25:42;16.30;1.00
10566;DHT22;5331;48.148;16.326;2023-08-06T03:28:09;16.30;1.00
10566;DHT22;5331;48.148;16.326;2023-08-06T03:30:36;16.30;1.00
10566;DHT22;5331;48.148;16.326;2023-08-06T03:33:03;16.30;1.00
10566;DHT22;5331;48.148;16.326;2023-08-06T03:35:30;16.40;1.00
10566;DHT22;5331;48.148;16.326;2023-08-06T03:37:58;16.30;1.00
10566;DHT22;5331;48.148;16.326;2023-08-06T03:40:25;16.30;1.00
10566;DHT22;5331;48.148;16.326;2023-08-06T03:42:52;16.30;1.00
10566;DHT22;5331;48.148;16.326;2023-08-06T03:45:19;16.40;1.00
10566;DHT22;5331;48.148;16.326;2023-08-06T03:47:46;16.30;1.00
10566;DHT22;5331;48.148;16.326;2023-08-06T03:50:12;16.40;1.00
10566;DHT22;5331;48.148;16.326;2023-08-06T03:52:39;16.40;1.00
10566;DHT22;5331;48.148;16.326;2023-08-06T03:55:08;16.40;1.00
10566;DHT22;5331;48.148;16.326;2023-08-06T03:57:35;16.50;1.00
10566;DHT22;5331;48.148;16.326;2023-08-06T04:00:02;16.40;1.00
10566;DHT22;5331;48.148;16.326;2023-08-06T04:02:29;16.40;1.00
10566;DHT22;5331;48.148;16.326;2023-08-06T04:04:56;16.40;1.00
10566;DHT22;5331;48.148;16.326;2023-08-06T04:07:24;16.50;1.00
10566;DHT22;5331;48.148;16.326;2023-08-06T04:09:53;16.50;1.00
10566;DHT22;5331;48.148;16.326;2023-08-06T04:12:21;16.40;1.00
10566;DHT22;5331;48.148;16.326;2023-08-06T04:14:49;16.40;1.00
10566;DHT22;5331;48.148;16.326;2023-08-06T04:17:16;16.60;1.00
10566;DHT22;5331;48.148;16.326;2023-08-06T04:19:46;16.60;1.00
10566;DHT22;5331;48.148;16.326;2023-08-06T04:22:13;16.60;1.00
10566;DHT22;5331;48.148;16.326;2023-08-06T04:24:40;16.60;1.00
10566;DHT22;5331;48.148;16.326;2023-08-06T04:27:07;16.50;1.00
10566;DHT22;5331;48.148;16.326;2023-08-06T04:29:36;16.50;1.00
10566;DHT22;5331;48.148;16.326;2023-08-06T04:32:05;16.50;1.00
10566;DHT22;5331;48.148;16.326;2023-08-06T04:34:32;16.50;1.00
10566;DHT22;5331;48.148;16.326;2023-08-06T04:36:59;16.50;1.00
10566;DHT22;5331;48.148;16.326;2023-08-06T04:39:26;16.50;1.00
10566;DHT22;5331;48.148;16.326;2023-08-06T04:41:53;16.60;1.00
10566;DHT22;5331;48.148;16.326;2023-08-06T04:44:20;16.60;1.00
10566;DHT22;5331;48.148;16.326;2023-08-06T04:46:49;16.60;1.00
10566;DHT22;5331;48.148;16.326;2023-08-06T04:49:16;16.60;1.00
10566;DHT22;5331;48.148;16.326;2023-08-06T04:51:43;16.60;1.00
10566;DHT22;5331;48.148;16.326;2023-08-06T04:54:10;16.60;1.00
10566;DHT22;5331;48.148;16.326;2023-08-06T04:56:37;16.60;1.00
10566;DHT22;5331;48.148;16.326;2023-08-06T04:59:04;16.60;1.00
10566;DHT22;5331;48.148;16.326;2023-08-06T05:01:31;16.60;1.00
10566;DHT22;5331;48.148;16.326;2023-08-06T05:03:59;16.60;1.00
10566;DHT22;5331;48.148;16.326;2023-08-06T05:06:26;16.60;1.00
10566;DHT22;5331;48.148;16.326;2023-08-06T05:08:53;16.60;1.00
10566;DHT22;5331;48.148;16.326;2023-08-06T05:11:20;16.70;1.00
10566;DHT22;5331;48.148;16.326;2023-08-06T05:13:47;16.70;1.00
10566;DHT22;5331;48.148;16.326;2023-08-06T05:16:14;16.60;1.00
10566;DHT22;5331;48.148;16.326;2023-08-06T05:18:41;16.60;1.00
10566;DHT22;5331;48.148;16.326;2023-08-06T05:21:09;16.60;1.00
10566;DHT22;5331;48.148;16.326;2023-08-06T05:23:36;16.70;1.00
10566;DHT22;5331;48.148;16.326;2023-08-06T05:26:03;16.70;1.00
10566;DHT22;5331;48.148;16.326;2023-08-06T05:28:30;16.60;1.00
10566;DHT22;5331;48.148;16.326;2023-08-06T05:30:57;16.60;1.00
10566;DHT22;5331;48.148;16.326;2023-08-06T05:33:24;16.60;1.00
10566;DHT22;5331;48.148;16.326;2023-08-06T05:35:50;16.60;1.00
10566;DHT22;5331;48.148;16.326;2023-08-06T05:38:19;16.70;1.00
10566;DHT22;5331;48.148;16.326;2023-08-06T05:40:45;16.70;1.00
10566;DHT22;5331;48.148;16.326;2023-08-06T05:43:13;16.70;1.00
10566;DHT22;5331;48.148;16.326;2023-08-06T05:45:44;16.80;1.00
10566;DHT22;5331;48.148;16.326;2023-08-06T05:48:11;16.80;1.00
10566;DHT22;5331;48.148;16.326;2023-08-06T05:50:38;16.90;1.00
10566;DHT22;5331;48.148;16.326;2023-08-06T05:53:05;16.80;1.00
10566;DHT22;5331;48.148;16.326;2023-08-06T05:55:34;16.80;1.00
10566;DHT22;5331;48.148;16.326;2023-08-06T05:58:01;16.80;1.00
10566;DHT22;5331;48.148;16.326;2023-08-06T06:00:28;16.90;1.00
10566;DHT22;5331;48.148;16.326;2023-08-06T06:02:55;16.90;1.00
10566;DHT22;5331;48.148;16.326;2023-08-06T06:05:22;17.00;1.00
10566;DHT22;5331;48.148;16.326;2023-08-06T06:07:49;17.00;1.00
10566;DHT22;5331;48.148;16.326;2023-08-06T06:10:16;17.00;1.00
10566;DHT22;5331;48.148;16.326;2023-08-06T06:12:45;17.10;1.00
10566;DHT22;5331;48.148;16.326;2023-08-06T06:15:12;17.00;1.00
10566;DHT22;5331;48.148;16.326;2023-08-06T06:17:40;17.10;1.00
10566;DHT22;5331;48.148;16.326;2023-08-06T06:20:07;17.10;1.00
10566;DHT22;5331;48.148;16.326;2023-08-06T06:22:34;17.10;1.00
10566;DHT22;5331;48.148;16.326;2023-08-06T06:25:01;17.10;1.00
10566;DHT22;5331;48.148;16.326;2023-08-06T06:27:28;17.10;1.00
10566;DHT22;5331;48.148;16.326;2023-08-06T06:29:56;17.10;1.00
10566;DHT22;5331;48.148;16.326;2023-08-06T06:32:23;17.20;1.00
10566;DHT22;5331;48.148;16.326;2023-08-06T06:34:50;17.20;1.00
10566;DHT22;5331;48.148;16.326;2023-08-06T06:37:17;17.30;1.00
10566;DHT22;5331;48.148;16.326;2023-08-06T06:39:44;17.30;1.00
10566;DHT22;5331;48.148;16.326;2023-08-06T06:42:12;17.30;1.00
10566;DHT22;5331;48.148;16.326;2023-08-06T06:44:40;17.30;1.00
10566;DHT22;5331;48.148;16.326;2023-08-06T06:47:10;17.30;1.00
10566;DHT22;5331;48.148;16.326;2023-08-06T06:49:37;17.30;1.00
10566;DHT22;5331;48.148;16.326;2023-08-06T06:52:05;17.30;1.00
10566;DHT22;5331;48.148;16.326;2023-08-06T06:54:32;17.40;1.00
10566;DHT22;5331;48.148;16.326;2023-08-06T06:56:58;17.40;1.00
10566;DHT22;5331;48.148;16.326;2023-08-06T06:59:25;17.40;1.00
10566;DHT22;5331;48.148;16.326;2023-08-06T07:01:52;17.50;1.00
10566;DHT22;5331;48.148;16.326;2023-08-06T07:04:20;17.40;1.00
10566;DHT22;5331;48.148;16.326;2023-08-06T07:06:47;17.50;1.00
10566;DHT22;5331;48.148;16.326;2023-08-06T07:09:14;17.50;1.00
10566;DHT22;5331;48.148;16.326;2023-08-06T07:11:41;17.40;1.00
10566;DHT22;5331;48.148;16.326;2023-08-06T07:14:09;17.40;1.00
10566;DHT22;5331;48.148;16.326;2023-08-06T07:16:36;17.40;1.00
10566;DHT22;5331;48.148;16.326;2023-08-06T07:19:03;17.50;1.00
10566;DHT22;5331;48.148;16.326;2023-08-06T07:21:32;17.60;1.00
10566;DHT22;5331;48.148;16.326;2023-08-06T07:23:59;17.60;1.00
10566;DHT22;5331;48.148;16.326;2023-08-06T07:26:26;17.60;1.00
10566;DHT22;5331;48.148;16.326;2023-08-06T07:28:53;17.70;1.00
10566;DHT22;5331;48.148;16.326;2023-08-06T07:31:20;17.60;1.00
10566;DHT22;5331;48.148;16.326;2023-08-06T07:33:47;17.60;1.00
10566;DHT22;5331;48.148;16.326;2023-08-06T07:36:14;17.70;1.00
10566;DHT22;5331;48.148;16.326;2023-08-06T07:38:43;17.80;1.00
10566;DHT22;5331;48.148;16.326;2023-08-06T07:41:10;17.70;1.00
10566;DHT22;5331;48.148;16.326;2023-08-06T07:43:37;17.80;1.00
10566;DHT22;5331;48.148;16.326;2023-08-06T07:46:04;17.90;1.00
10566;DHT22;5331;48.148;16.326;2023-08-06T07:48:31;17.90;1.00
10566;DHT22;5331;48.148;16.326;2023-08-06T07:50:58;17.90;1.00
10566;DHT22;5331;48.148;16.326;2023-08-06T07:53:25;18.00;1.00
10566;DHT22;5331;48.148;16.326;2023-08-06T07:55:58;18.00;1.00
10566;DHT22;5331;48.148;16.326;2023-08-06T07:58:27;18.10;1.00
10566;DHT22;5331;48.148;16.326;2023-08-06T08:00:55;18.10;1.00
10566;DHT22;5331;48.148;16.326;2023-08-06T08:03:22;18.10;1.00
10566;DHT22;5331;48.148;16.326;2023-08-06T08:05:49;18.20;1.00
10566;DHT22;5331;48.148;16.326;2023-08-06T08:08:17;18.30;1.00
10566;DHT22;5331;48.148;16.326;2023-08-06T08:10:44;18.30;1.00
10566;DHT22;5331;48.148;16.326;2023-08-06T08:13:12;18.20;1.00
10566;DHT22;5331;48.148;16.326;2023-08-06T08:15:39;18.20;1.00
10566;DHT22;5331;48.148;16.326;2023-08-06T08:18:06;18.10;1.00
10566;DHT22;5331;48.148;16.326;2023-08-06T08:20:34;18.10;1.00
10566;DHT22;5331;48.148;16.326;2023-08-06T08:23:01;18.10;1.00
10566;DHT22;5331;48.148;16.326;2023-08-06T08:25:29;18.00;1.00
10566;DHT22;5331;48.148;16.326;2023-08-06T08:27:57;18.00;1.00
10566;DHT22;5331;48.148;16.326;2023-08-06T08:30:25;18.00;1.00
10566;DHT22;5331;48.148;16.326;2023-08-06T08:32:52;18.00;1.00
10566;DHT22;5331;48.148;16.326;2023-08-06T08:35:19;17.90;1.00
10566;DHT22;5331;48.148;16.326;2023-08-06T08:37:46;17.90;1.00
10566;DHT22;5331;48.148;16.326;2023-08-06T08:40:14;17.90;1.00
10566;DHT22;5331;48.148;16.326;2023-08-06T08:42:42;17.90;1.00
10566;DHT22;5331;48.148;16.326;2023-08-06T08:45:12;17.90;1.00
10566;DHT22;5331;48.148;16.326;2023-08-06T08:47:44;18.00;1.00
10566;DHT22;5331;48.148;16.326;2023-08-06T08:50:13;18.00;1.00
10566;DHT22;5331;48.148;16.326;2023-08-06T08:52:40;18.00;1.00
10566;DHT22;5331;48.148;16.326;2023-08-06T08:55:12;18.20;1.00
10566;DHT22;5331;48.148;16.326;2023-08-06T08:57:40;18.20;1.00
10566;DHT22;5331;48.148;16.326;2023-08-06T09:00:08;18.20;1.00
10566;DHT22;5331;48.148;16.326;2023-08-06T09:02:37;18.10;1.00
10566;DHT22;5331;48.148;16.326;2023-08-06T09:05:07;18.10;1.00
10566;DHT22;5331;48.148;16.326;2023-08-06T09:07:37;18.00;1.00
10566;DHT22;5331;48.148;16.326;2023-08-06T09:10:07;18.00;1.00
10566;DHT22;5331;48.148;16.326;2023-08-06T09:12:36;17.80;1.00
10566;DHT22;5331;48.148;16.326;2023-08-06T09:15:04;17.60;1.00
10566;DHT22;5331;48.148;16.326;2023-08-06T09:17:31;17.60;1.00
10566;DHT22;5331;48.148;16.326;2023-08-06T09:19:58;17.60;1.00
10566;DHT22;5331;48.148;16.326;2023-08-06T09:22:33;17.60;1.00
10566;DHT22;5331;48.148;16.326;2023-08-06T09:25:01;17.60;1.00
10566;DHT22;5331;48.148;16.326;2023-08-06T09:27:29;17.50;1.00
10566;DHT22;5331;48.148;16.326;2023-08-06T09:29:56;17.50;1.00
10566;DHT22;5331;48.148;16.326;2023-08-06T09:32:24;17.40;1.00
10566;DHT22;5331;48.148;16.326;2023-08-06T09:34:55;17.30;1.00
10566;DHT22;5331;48.148;16.326;2023-08-06T09:37:22;17.20;1.00
10566;DHT22;5331;48.148;16.326;2023-08-06T09:39:51;17.10;1.00
10566;DHT22;5331;48.148;16.326;2023-08-06T09:42:19;17.00;1.00
10566;DHT22;5331;48.148;16.326;2023-08-06T09:44:47;17.00;1.00
10566;DHT22;5331;48.148;16.326;2023-08-06T09:47:16;16.90;1.00
10566;DHT22;5331;48.148;16.326;2023-08-06T09:49:45;16.90;1.00
10566;DHT22;5331;48.148;16.326;2023-08-06T09:52:13;16.90;1.00
10566;DHT22;5331;48.148;16.326;2023-08-06T09:54:43;16.80;1.00
10566;DHT22;5331;48.148;16.326;2023-08-06T09:57:12;16.80;1.00
10566;DHT22;5331;48.148;16.326;2023-08-06T09:59:39;16.70;1.00
10566;DHT22;5331;48.148;16.326;2023-08-06T10:02:12;16.70;1.00
10566;DHT22;5331;48.148;16.326;2023-08-06T10:04:39;16.70;1.00
10566;DHT22;5331;48.148;16.326;2023-08-06T10:07:06;16.70;1.00
10566;DHT22;5331;48.148;16.326;2023-08-06T10:09:33;16.80;1.00
10566;DHT22;5331;48.148;16.326;2023-08-06T10:12:00;16.80;1.00
10566;DHT22;5331;48.148;16.326;2023-08-06T10:14:32;16.90;1.00
10566;DHT22;5331;48.148;16.326;2023-08-06T10:16:59;16.80;1.00
10566;DHT22;5331;48.148;16.326;2023-08-06T10:19:27;16.90;1.00
10566;DHT22;5331;48.148;16.326;2023-08-06T10:22:14;17.00;1.00
10566;DHT22;5331;48.148;16.326;2023-08-06T10:24:49;17.10;1.00
10566;DHT22;5331;48.148;16.326;2023-08-06T10:27:20;17.10;1.00
10566;DHT22;5331;48.148;16.326;2023-08-06T10:29:49;17.10;1.00
10566;DHT22;5331;48.148;16.326;2023-08-06T10:32:16;17.20;1.00
10566;DHT22;5331;48.148;16.326;2023-08-06T10:34:57;17.20;1.00
10566;DHT22;5331;48.148;16.326;2023-08-06T10:37:25;17.30;1.00
10566;DHT22;5331;48.148;16.326;2023-08-06T10:40:00;17.40;1.00
10566;DHT22;5331;48.148;16.326;2023-08-06T10:42:28;17.40;1.00
10566;DHT22;5331;48.148;16.326;2023-08-06T10:45:15;17.50;1.00
10566;DHT22;5331;48.148;16.326;2023-08-06T10:47:43;17.50;1.00
10566;DHT22;5331;48.148;16.326;2023-08-06T10:50:12;17.50;1.00
10566;DHT22;5331;48.148;16.326;2023-08-06T10:52:42;17.50;1.00
10566;DHT22;5331;48.148;16.326;2023-08-06T10:55:09;17.50;1.00
10566;DHT22;5331;48.148;16.326;2023-08-06T10:57:36;17.60;1.00
10566;DHT22;5331;48.148;16.326;2023-08-06T11:00:04;17.60;1.00
10566;DHT22;5331;48.148;16.326;2023-08-06T11:02:35;17.70;1.00
10566;DHT22;5331;48.148;16.326;2023-08-06T11:05:09;17.70;1.00
10566;DHT22;5331;48.148;16.326;2023-08-06T11:07:37;17.70;1.00
10566;DHT22;5331;48.148;16.326;2023-08-06T11:10:05;17.80;1.00
10566;DHT22;5331;48.148;16.326;2023-08-06T11:12:33;17.80;1.00
10566;DHT22;5331;48.148;16.326;2023-08-06T11:15:01;17.90;1.00
10566;DHT22;5331;48.148;16.326;2023-08-06T11:17:29;18.00;1.00
10566;DHT22;5331;48.148;16.326;2023-08-06T11:19:59;18.10;1.00
10566;DHT22;5331;48.148;16.326;2023-08-06T11:22:26;18.00;1.00
10566;DHT22;5331;48.148;16.326;2023-08-06T11:24:53;18.00;1.00
10566;DHT22;5331;48.148;16.326;2023-08-06T11:27:20;17.90;1.00
10566;DHT22;5331;48.148;16.326;2023-08-06T11:29:47;17.80;1.00
10566;DHT22;5331;48.148;16.326;2023-08-06T11:32:14;17.70;1.00
10566;DHT22;5331;48.148;16.326;2023-08-06T11:34:41;17.60;1.00
10566;DHT22;5331;48.148;16.326;2023-08-06T11:37:11;17.50;1.00
10566;DHT22;5331;48.148;16.326;2023-08-06T11:39:38;17.40;1.00
10566;DHT22;5331;48.148;16.326;2023-08-06T11:42:06;17.40;1.00
10566;DHT22;5331;48.148;16.326;2023-08-06T11:44:35;17.40;1.00
10566;DHT22;5331;48.148;16.326;2023-08-06T11:47:03;17.40;1.00
10566;DHT22;5331;48.148;16.326;2023-08-06T11:49:38;17.30;1.00
10566;DHT22;5331;48.148;16.326;2023-08-06T11:52:13;17.20;1.00
10566;DHT22;5331;48.148;16.326;2023-08-06T11:54:40;17.30;1.00
10566;DHT22;5331;48.148;16.326;2023-08-06T11:57:07;17.20;1.00
10566;DHT22;5331;48.148;16.326;2023-08-06T11:59:34;17.10;1.00
10566;DHT22;5331;48.148;16.326;2023-08-06T12:02:02;17.10;1.00
10566;DHT22;5331;48.148;16.326;2023-08-06T12:04:31;17.10;1.00
10566;DHT22;5331;48.148;16.326;2023-08-06T12:07:05;17.10;1.00
10566;DHT22;5331;48.148;16.326;2023-08-06T12:09:34;17.10;1.00
10566;DHT22;5331;48.148;16.326;2023-08-06T12:12:02;17.10;1.00
10566;DHT22;5331;48.148;16.326;2023-08-06T12:14:29;17.00;1.00
10566;DHT22;5331;48.148;16.326;2023-08-06T12:16:56;17.10;1.00
10566;DHT22;5331;48.148;16.326;2023-08-06T12:19:23;17.10;1.00
10566;DHT22;5331;48.148;16.326;2023-08-06T12:21:50;17.20;1.00
10566;DHT22;5331;48.148;16.326;2023-08-06T12:24:17;17.20;1.00
10566;DHT22;5331;48.148;16.326;2023-08-06T12:26:45;17.20;1.00
10566;DHT22;5331;48.148;16.326;2023-08-06T12:29:12;17.30;1.00
10566;DHT22;5331;48.148;16.326;2023-08-06T12:31:39;17.30;1.00
10566;DHT22;5331;48.148;16.326;2023-08-06T12:34:05;17.30;1.00
10566;DHT22;5331;48.148;16.326;2023-08-06T12:36:32;17.40;1.00
10566;DHT22;5331;48.148;16.326;2023-08-06T12:38:59;17.40;1.00
10566;DHT22;5331;48.148;16.326;2023-08-06T12:41:26;17.40;1.00
10566;DHT22;5331;48.148;16.326;2023-08-06T12:43:54;17.40;1.00
10566;DHT22;5331;48.148;16.326;2023-08-06T12:46:21;17.40;1.00
10566;DHT22;5331;48.148;16.326;2023-08-06T12:48:48;17.40;1.00
10566;DHT22;5331;48.148;16.326;2023-08-06T12:51:15;17.50;1.00
10566;DHT22;5331;48.148;16.326;2023-08-06T12:53:41;17.50;1.00
10566;DHT22;5331;48.148;16.326;2023-08-06T12:56:08;17.50;1.00
10566;DHT22;5331;48.148;16.326;2023-08-06T12:58:35;17.50;1.00
10566;DHT22;5331;48.148;16.326;2023-08-06T13:01:04;17.60;1.00
10566;DHT22;5331;48.148;16.326;2023-08-06T13:03:33;17.70;1.00
10566;DHT22;5331;48.148;16.326;2023-08-06T13:06:01;17.80;1.00
10566;DHT22;5331;48.148;16.326;2023-08-06T13:08:30;17.80;1.00
10566;DHT22;5331;48.148;16.326;2023-08-06T13:10:58;17.80;1.00
10566;DHT22;5331;48.148;16.326;2023-08-06T13:13:27;17.90;1.00
10566;DHT22;5331;48.148;16.326;2023-08-06T13:15:56;18.00;1.00
10566;DHT22;5331;48.148;16.326;2023-08-06T13:18:26;18.10;1.00
10566;DHT22;5331;48.148;16.326;2023-08-06T13:20:55;18.20;1.00
10566;DHT22;5331;48.148;16.326;2023-08-06T13:23:24;18.30;1.00
10566;DHT22;5331;48.148;16.326;2023-08-06T13:25:53;18.40;1.00
10566;DHT22;5331;48.148;16.326;2023-08-06T13:28:21;18.50;1.00
10566;DHT22;5331;48.148;16.326;2023-08-06T13:30:50;18.60;1.00
10566;DHT22;5331;48.148;16.326;2023-08-06T13:33:18;18.70;1.00
10566;DHT22;5331;48.148;16.326;2023-08-06T13:35:49;18.80;1.00
10566;DHT22;5331;48.148;16.326;2023-08-06T13:38:17;18.80;1.00
10566;DHT22;5331;48.148;16.326;2023-08-06T13:40:46;18.90;1.00
10566;DHT22;5331;48.148;16.326;2023-08-06T13:43:14;18.90;1.00
10566;DHT22;5331;48.148;16.326;2023-08-06T13:45:45;19.00;1.00
10566;DHT22;5331;48.148;16.326;2023-08-06T13:48:13;19.00;1.00
10566;DHT22;5331;48.148;16.326;2023-08-06T13:50:42;18.90;1.00
10566;DHT22;5331;48.148;16.326;2023-08-06T13:53:12;19.00;1.00
10566;DHT22;5331;48.148;16.326;2023-08-06T13:55:41;19.10;1.00
10566;DHT22;5331;48.148;16.326;2023-08-06T13:58:10;19.10;1.00
10566;DHT22;5331;48.148;16.326;2023-08-06T14:00:38;19.20;1.00
10566;DHT22;5331;48.148;16.326;2023-08-06T14:03:06;19.20;1.00
10566;DHT22;5331;48.148;16.326;2023-08-06T14:05:35;19.20;1.00
10566;DHT22;5331;48.148;16.326;2023-08-06T14:08:03;19.30;1.00
10566;DHT22;5331;48.148;16.326;2023-08-06T14:10:34;19.40;1.00
10566;DHT22;5331;48.148;16.326;2023-08-06T14:13:02;19.30;1.00
10566;DHT22;5331;48.148;16.326;2023-08-06T14:15:31;19.30;1.00
10566;DHT22;5331;48.148;16.326;2023-08-06T14:18:00;19.40;1.00
10566;DHT22;5331;48.148;16.326;2023-08-06T14:20:29;19.40;1.00
10566;DHT22;5331;48.148;16.326;2023-08-06T14:22:58;19.50;1.00
10566;DHT22;5331;48.148;16.326;2023-08-06T14:25:28;19.50;1.00
10566;DHT22;5331;48.148;16.326;2023-08-06T14:27:58;19.50;1.00
10566;DHT22;5331;48.148;16.326;2023-08-06T14:30:27;19.40;1.00
10566;DHT22;5331;48.148;16.326;2023-08-06T14:32:55;19.40;1.00
10566;DHT22;5331;48.148;16.326;2023-08-06T14:35:25;19.30;1.00
10566;DHT22;5331;48.148;16.326;2023-08-06T14:37:53;19.30;1.00
10566;DHT22;5331;48.148;16.326;2023-08-06T14:40:22;19.20;1.00
10566;DHT22;5331;48.148;16.326;2023-08-06T14:42:54;19.20;1.00
10566;DHT22;5331;48.148;16.326;2023-08-06T14:45:25;19.10;1.00
10566;DHT22;5331;48.148;16.326;2023-08-06T14:47:54;19.10;1.00
10566;DHT22;5331;48.148;16.326;2023-08-06T14:50:23;19.00;1.00
10566;DHT22;5331;48.148;16.326;2023-08-06T14:52:51;19.00;1.00
10566;DHT22;5331;48.148;16.326;2023-08-06T14:55:29;19.00;1.00
10566;DHT22;5331;48.148;16.326;2023-08-06T14:57:58;19.00;1.00
10566;DHT22;5331;48.148;16.326;2023-08-06T15:00:28;18.90;1.00
10566;DHT22;5331;48.148;16.326;2023-08-06T15:02:57;18.90;1.00
10566;DHT22;5331;48.148;16.326;2023-08-06T15:05:30;18.90;1.00
10566;DHT22;5331;48.148;16.326;2023-08-06T15:08:00;18.90;1.00
10566;DHT22;5331;48.148;16.326;2023-08-06T15:10:30;18.90;1.00
10566;DHT22;5331;48.148;16.326;2023-08-06T15:12:59;18.80;1.00
10566;DHT22;5331;48.148;16.326;2023-08-06T15:15:31;18.80;1.00
10566;DHT22;5331;48.148;16.326;2023-08-06T15:18:01;18.70;1.00
10566;DHT22;5331;48.148;16.326;2023-08-06T15:20:30;18.70;1.00
10566;DHT22;5331;48.148;16.326;2023-08-06T15:23:02;18.60;1.00
10566;DHT22;5331;48.148;16.326;2023-08-06T15:25:31;18.60;1.00
10566;DHT22;5331;48.148;16.326;2023-08-06T15:27:59;18.60;1.00
10566;DHT22;5331;48.148;16.326;2023-08-06T15:30:33;18.60;1.00
10566;DHT22;5331;48.148;16.326;2023-08-06T15:33:02;18.70;1.00
10566;DHT22;5331;48.148;16.326;2023-08-06T15:35:32;18.70;1.00
10566;DHT22;5331;48.148;16.326;2023-08-06T15:38:02;18.80;1.00
10566;DHT22;5331;48.148;16.326;2023-08-06T15:40:30;18.80;1.00
10566;DHT22;5331;48.148;16.326;2023-08-06T15:42:59;18.90;1.00
10566;DHT22;5331;48.148;16.326;2023-08-06T15:45:30;18.90;1.00
10566;DHT22;5331;48.148;16.326;2023-08-06T15:47:58;19.00;1.00
10566;DHT22;5331;48.148;16.326;2023-08-06T15:50:27;19.10;1.00